Time;durP1;ratioP1;P1;durP2;ratioP2;P2;SDS_P1;SDS_P2;PMS_P1;PMS_P2;Temp;Humidity;BMP_temperature;BMP_pressure;BME280_temperature;BME280_humidity;BME280_pressure;Samples;Min_cycle;Max_cycle;Signal;HPM_P1;HPM_P2
2021/12/26 00:24:10;;;;;;;10.63;3.72;;;;;;;;;;6296812;22;20009;-94
2021/12/26 00:26:51;;;;;;;14.43;3.78;;;;;;;;;;6312629;22;20013;-95
2021/12/26 00:32:07;;;;;;;7.90;3.70;;;;;;;;;;6305890;22;20090;-95
2021/12/26 00:34:52;;;;;;;14.60;3.75;;;;;;;;;;6304598;22;20059;-96
2021/12/26 00:37:33;;;;;;;;;;;;;;;;;;6305135;22;20016;-95
2021/12/26 00:40:19;;;;;;;8.73;4.00;;;;;;;;;;6282048;22;19900;-95
2021/12/26 00:43:01;;;;;;;14.63;3.77;;;;;;;;;;6281932;22;20004;-95
2021/12/26 00:45:52;;;;;;;8.38;3.72;;;;;;;;;;6281213;22;20497;-96
2021/12/26 00:48:33;;;;;;;9.20;4.18;;;;;;;;;;6304708;22;20022;-95
2021/12/26 00:51:14;;;;;;;9.52;3.33;;;;;;;;;;6304597;22;20031;-96
2021/12/26 00:53:56;;;;;;;8.27;3.67;;;;;;;;;;6281763;22;20010;-94
2021/12/26 00:56:38;;;;;;;9.90;3.67;;;;;;;;;;6281719;22;20008;-95
2021/12/26 01:02:42;;;;;;;16.38;3.78;;;;;;;;;;6305823;22;20023;-95
2021/12/26 01:05:23;;;;;;;14.07;4.00;;;;;;;;;;6281489;22;20014;-95
2021/12/26 01:08:05;;;;;;;9.75;3.75;;;;;;;;;;6281694;22;20034;-95
2021/12/26 01:11:23;;;;;;;12.75;4.25;;;;;;;;;;6258769;22;20038;-95
2021/12/26 01:14:05;;;;;;;9.38;3.92;;;;;;;;;;6281584;22;20015;-95
2021/12/26 01:16:48;;;;;;;9.63;3.97;;;;;;;;;;6266485;22;20045;-95
2021/12/26 01:19:39;;;;;;;10.25;4.03;;;;;;;;;;6281392;22;20004;-95
2021/12/26 01:22:21;;;;;;;10.55;4.65;;;;;;;;;;6281675;22;20034;-95
2021/12/26 01:25:02;;;;;;;10.00;4.07;;;;;;;;;;6191298;23;20005;-95
2021/12/26 01:27:44;;;;;;;17.13;5.00;;;;;;;;;;6212634;23;20025;-95
2021/12/26 01:30:24;;;;;;;11.70;5.63;;;;;;;;;;6190720;23;20015;-95
2021/12/26 01:33:09;;;;;;;9.13;4.88;;;;;;;;;;6190721;23;20013;-96
2021/12/26 01:36:10;;;;;;;9.82;5.10;;;;;;;;;;6189784;23;20025;-95
2021/12/26 01:38:50;;;;;;;9.73;4.85;;;;;;;;;;6189729;23;20005;-95
2021/12/26 01:41:31;;;;;;;13.13;5.32;;;;;;;;;;6190959;23;20065;-95
2021/12/26 01:44:14;;;;;;;10.20;4.47;;;;;;;;;;6212846;23;20008;-95
2021/12/26 01:46:57;;;;;;;6.95;4.63;;;;;;;;;;6189458;23;20005;-95
2021/12/26 01:49:39;;;;;;;12.77;4.68;;;;;;;;;;6189743;23;20040;-96
2021/12/26 01:52:20;;;;;;;12.48;5.30;;;;;;;;;;6189559;23;20032;-95
2021/12/26 01:55:21;;;;;;;9.43;4.30;;;;;;;;;;6202507;22;20005;-96
2021/12/26 01:58:02;;;;;;;11.75;5.07;;;;;;;;;;6280852;22;20014;-96
2021/12/26 02:00:45;;;;;;;12.90;5.50;;;;;;;;;;6280975;22;20055;-96
2021/12/26 02:03:27;;;;;;;10.25;5.03;;;;;;;;;;6281031;22;20011;-96
2021/12/26 02:06:09;;;;;;;12.88;5.50;;;;;;;;;;6279935;22;20008;-96
2021/12/26 02:08:50;;;;;;;11.57;5.30;;;;;;;;;;6303696;22;20068;-96
2021/12/26 02:11:49;;;;;;;12.57;5.20;;;;;;;;;;6190701;23;20040;-96
2021/12/26 02:14:29;;;;;;;8.07;4.03;;;;;;;;;;6179954;23;20023;-94
2021/12/26 02:17:10;;;;;;;9.50;5.05;;;;;;;;;;6189285;23;20036;-96
2021/12/26 02:19:53;;;;;;;9.93;4.28;;;;;;;;;;6211070;23;20032;-95
2021/12/26 02:22:38;;;;;;;10.25;4.60;;;;;;;;;;6189418;23;20025;-96
2021/12/26 02:27:30;;;;;;;9.95;4.97;;;;;;;;;;6189492;23;20033;-96
2021/12/26 02:28:29;;;;;;;7.43;4.40;;;;;;;;;;6211251;23;20332;-95
2021/12/26 02:31:11;;;;;;;7.43;3.92;;;;;;;;;;6171704;23;20009;-95
2021/12/26 02:33:52;;;;;;;7.78;4.53;;;;;;;;;;6159008;23;20013;-95
2021/12/26 02:36:33;;;;;;;9.00;4.22;;;;;;;;;;6159545;23;20146;-94
2021/12/26 03:15:22;;;;;;;9.02;3.90;;;;;;;;;;6316599;22;20398;-95
2021/12/26 03:18:03;;;;;;;7.68;4.03;;;;;;;;;;6313272;22;20007;-95
2021/12/26 03:20:46;;;;;;;8.82;4.95;;;;;;;;;;6336479;22;20011;-94
2021/12/26 03:23:27;;;;;;;9.95;4.30;;;;;;;;;;6312845;22;20007;-94
2021/12/26 03:26:07;;;;;;;9.05;4.78;;;;;;;;;;6313637;22;20003;-95
2021/12/26 03:32:14;;;;;;;9.25;3.88;;;;;;;;;;6244527;23;20015;-96
2021/12/26 03:34:58;;;;;;;7.65;3.65;;;;;;;;;;6242747;23;20005;-94
2021/12/26 03:37:39;;;;;;;7.20;3.17;;;;;;;;;;6222290;23;20028;-95
2021/12/26 03:40:24;;;;;;;7.88;3.70;;;;;;;;;;6222647;23;20025;-95
2021/12/26 03:43:06;;;;;;;8.00;4.53;;;;;;;;;;6242943;23;20052;-95
2021/12/26 03:45:49;;;;;;;7.90;4.03;;;;;;;;;;6222032;23;20005;-93
2021/12/26 03:48:32;;;;;;;10.90;4.65;;;;;;;;;;6221993;23;20015;-94
2021/12/26 03:51:13;;;;;;;9.82;4.00;;;;;;;;;;6221063;23;20011;-95
2021/12/26 03:53:57;;;;;;;9.30;3.72;;;;;;;;;;6221536;23;20134;-95
2021/12/26 03:56:44;;;;;;;8.40;4.22;;;;;;;;;;6242718;23;20051;-95
2021/12/26 03:59:27;;;;;;;9.27;3.83;;;;;;;;;;6221320;23;20009;-95
2021/12/26 04:02:08;;;;;;;7.10;4.40;;;;;;;;;;6221743;23;20040;-95
2021/12/26 04:04:49;;;;;;;9.18;3.92;;;;;;;;;;6244137;22;20009;-95
2021/12/26 04:07:31;;;;;;;9.60;4.18;;;;;;;;;;6312884;22;20012;-95
2021/12/26 04:10:13;;;;;;;10.27;4.10;;;;;;;;;;6312541;22;20003;-95
2021/12/26 04:12:55;;;;;;;5.75;3.80;;;;;;;;;;6312677;22;20019;-95
2021/12/26 04:15:36;;;;;;;6.88;3.97;;;;;;;;;;6285603;22;20015;-96
2021/12/26 04:18:16;;;;;;;13.98;4.60;;;;;;;;;;6281148;22;20012;-95
2021/12/26 04:20:58;;;;;;;9.52;4.00;;;;;;;;;;6282111;22;20023;-95
2021/12/26 04:23:42;;;;;;;9.32;4.32;;;;;;;;;;6303235;22;20034;-95
2021/12/26 04:26:23;;;;;;;8.50;4.00;;;;;;;;;;6282121;22;20027;-95
2021/12/26 04:29:04;;;;;;;9.48;3.97;;;;;;;;;;6281811;22;20019;-95
2021/12/26 04:31:44;;;;;;;13.18;4.07;;;;;;;;;;6281900;22;20012;-95
2021/12/26 04:34:25;;;;;;;9.27;4.57;;;;;;;;;;6304964;22;20003;-94
2021/12/26 04:37:07;;;;;;;10.02;3.25;;;;;;;;;;6304345;22;20016;-96
2021/12/26 04:39:48;;;;;;;6.75;4.00;;;;;;;;;;6304808;22;20011;-94
2021/12/26 04:42:31;;;;;;;7.22;4.00;;;;;;;;;;6303075;22;20012;-95
2021/12/26 04:45:12;;;;;;;10.98;3.70;;;;;;;;;;6221333;23;20044;-95
2021/12/26 04:47:53;;;;;;;8.70;4.82;;;;;;;;;;6220409;23;20009;-95
2021/12/26 04:50:44;;;;;;;11.20;4.18;;;;;;;;;;6220248;23;20038;-96
2021/12/26 04:53:25;;;;;;;18.48;4.85;;;;;;;;;;6220447;23;20012;-95
2021/12/26 04:56:07;;;;;;;9.50;3.90;;;;;;;;;;6220368;23;20076;-96
2021/12/26 05:23:12;;;;;;;7.28;3.65;;;;;;;;;;6337379;22;20014;-94
2021/12/26 05:25:53;;;;;;;13.27;4.63;;;;;;;;;;6312340;22;20079;-96
2021/12/26 05:28:35;;;;;;;9.77;3.90;;;;;;;;;;6311833;22;20026;-95
2021/12/26 05:31:16;;;;;;;10.07;4.22;;;;;;;;;;6312862;22;20007;-95
2021/12/26 05:33:57;;;;;;;10.00;3.90;;;;;;;;;;6311575;22;20003;-95
2021/12/26 05:36:37;;;;;;;9.85;4.47;;;;;;;;;;6312104;22;20018;-95
2021/12/26 05:39:18;;;;;;;10.13;4.43;;;;;;;;;;6310903;22;20051;-95
2021/12/26 05:42:03;;;;;;;6.82;3.90;;;;;;;;;;6335180;22;20027;-95
2021/12/26 05:44:55;;;;;;;8.02;4.03;;;;;;;;;;6335094;22;20026;-96
2021/12/26 05:47:37;;;;;;;7.90;3.92;;;;;;;;;;6335013;22;20043;-94
2021/12/26 05:50:19;;;;;;;14.13;4.88;;;;;;;;;;6311903;22;20180;-96
2021/12/26 05:53:00;;;;;;;9.10;4.38;;;;;;;;;;6311923;22;20011;-95
2021/12/26 05:55:41;;;;;;;8.98;4.85;;;;;;;;;;6311753;22;20004;-95
2021/12/26 05:58:25;;;;;;;11.30;5.97;;;;;;;;;;6335105;22;20003;-95
2021/12/26 06:01:06;;;;;;;8.82;4.10;;;;;;;;;;6311688;22;20049;-95
2021/12/26 06:03:49;;;;;;;8.73;4.30;;;;;;;;;;6311678;22;20092;-95
2021/12/26 06:06:32;;;;;;;8.55;4.65;;;;;;;;;;6303651;22;20023;-96
2021/12/26 06:09:13;;;;;;;10.65;4.07;;;;;;;;;;6281293;22;20003;-95
2021/12/26 06:11:53;;;;;;;10.45;4.40;;;;;;;;;;6280673;22;19999;-95
2021/12/26 06:14:34;;;;;;;11.13;4.30;;;;;;;;;;6303899;22;20019;-94
2021/12/26 06:17:15;;;;;;;17.33;5.38;;;;;;;;;;6281172;22;20027;-96
2021/12/26 06:19:56;;;;;;;17.88;4.35;;;;;;;;;;6280562;22;20011;-95
2021/12/26 06:22:36;;;;;;;42.38;5.20;;;;;;;;;;6268268;22;20008;-95
2021/12/26 06:25:18;;;;;;;82.60;8.85;;;;;;;;;;6250555;22;20067;-95
2021/12/26 06:27:58;;;;;;;11.30;4.15;;;;;;;;;;6249236;22;20051;-94
2021/12/26 06:30:40;;;;;;;7.55;4.38;;;;;;;;;;6272818;22;20008;-95
2021/12/26 06:33:20;;;;;;;6.95;3.70;;;;;;;;;;6250446;22;20008;-95
2021/12/26 06:36:04;;;;;;;8.55;3.88;;;;;;;;;;6272839;22;20028;-95
2021/12/26 06:38:46;;;;;;;14.27;6.00;;;;;;;;;;6250307;22;20084;-95
2021/12/26 06:41:26;;;;;;;8.27;5.35;;;;;;;;;;6250247;22;20008;-95
2021/12/26 06:44:09;;;;;;;15.23;5.60;;;;;;;;;;6250473;22;20004;-96
2021/12/26 06:46:50;;;;;;;8.35;4.35;;;;;;;;;;6250386;22;20020;-95
2021/12/26 06:49:31;;;;;;;7.97;4.90;;;;;;;;;;6250283;22;20010;-95
2021/12/26 06:52:12;;;;;;;9.52;5.00;;;;;;;;;;6250219;22;20019;-95
2021/12/26 06:54:53;;;;;;;9.90;4.68;;;;;;;;;;6250286;22;20039;-95
2021/12/26 06:57:36;;;;;;;6.95;3.92;;;;;;;;;;6272937;22;20046;-94
2021/12/26 07:00:18;;;;;;;10.50;4.22;;;;;;;;;;6272795;22;20034;-95
2021/12/26 07:03:00;;;;;;;6.97;3.30;;;;;;;;;;6272905;22;20115;-95
2021/12/26 08:34:11;;;;;;;5.60;3.33;;;;;;;;;;6254660;22;20007;-92
2021/12/26 08:37:01;;;;;;;5.95;3.17;;;;;;;;;;6283172;22;20034;-93
2021/12/26 08:39:37;;;;;;;8.35;3.20;;;;;;;;;;6281357;22;20034;-94
2021/12/26 08:42:19;;;;;;;7.70;3.58;;;;;;;;;;6280726;22;20007;-94
2021/12/26 08:45:00;;;;;;;5.95;3.88;;;;;;;;;;6281639;22;20014;-95
2021/12/26 08:47:40;;;;;;;9.30;3.90;;;;;;;;;;6281602;22;20079;-95
2021/12/26 15:41:06;;;;;;;7.18;3.67;;;;;;;;;;6272798;22;19999;-95
2021/12/26 15:43:51;;;;;;;11.45;4.03;;;;;;;;;;6302626;22;20011;-95
2021/12/26 15:46:39;;;;;;;8.23;3.72;;;;;;;;;;6276963;22;20018;-94
2021/12/26 21:54:44;;;;;;;13.40;5.35;;;;;;;;;;6227144;22;20004;-94
2021/12/26 21:57:24;;;;;;;12.70;5.60;;;;;;;;;;6283155;22;20043;-94
2021/12/26 22:00:08;;;;;;;14.77;6.45;;;;;;;;;;6283111;22;20011;-93
2021/12/26 22:06:11;;;;;;;15.45;5.78;;;;;;;;;;6305800;22;20025;-93
2021/12/26 22:08:56;;;;;;;13.27;5.80;;;;;;;;;;6281490;22;20004;-95
2021/12/26 22:11:37;;;;;;;11.15;6.25;;;;;;;;;;6281389;22;20031;-93
2021/12/26 22:14:17;;;;;;;14.95;7.25;;;;;;;;;;6281051;22;20007;-94
2021/12/26 22:16:59;;;;;;;15.38;6.85;;;;;;;;;;6278996;22;20014;-94
2021/12/26 22:19:42;;;;;;;18.48;6.40;;;;;;;;;;6280792;22;20046;-95
2021/12/26 22:22:18;;;;;;;12.07;6.47;;;;;;;;;;6280566;22;20016;-94
2021/12/26 22:25:10;;;;;;;14.93;6.97;;;;;;;;;;6304161;22;20012;-95
2021/12/26 22:27:44;;;;;;;13.30;5.57;;;;;;;;;;6304639;22;20010;-94
2021/12/26 22:30:26;;;;;;;18.95;6.90;;;;;;;;;;6278937;22;20012;-94
2021/12/26 22:33:01;;;;;;;11.95;6.13;;;;;;;;;;6281262;22;20018;-95
2021/12/26 22:39:05;;;;;;;14.88;6.68;;;;;;;;;;6305695;22;19998;-94
2021/12/26 22:41:45;;;;;;;17.48;7.03;;;;;;;;;;6281109;22;20004;-95
2021/12/26 22:54:47;;;;;;;13.60;6.70;;;;;;;;;;6282130;22;20014;-94
2021/12/26 22:57:14;;;;;;;16.13;6.55;;;;;;;;;;6280823;22;20007;-93
2021/12/26 22:59:55;;;;;;;15.73;7.47;;;;;;;;;;6280979;22;20014;-94
2021/12/26 23:09:20;;;;;;;11.35;5.85;;;;;;;;;;6305318;22;20022;-94
2021/12/26 23:12:01;;;;;;;14.40;6.57;;;;;;;;;;6303848;22;20034;-94
2021/12/26 23:14:42;;;;;;;14.02;6.10;;;;;;;;;;6278212;22;20011;-94
2021/12/26 23:17:21;;;;;;;14.40;6.85;;;;;;;;;;6283621;22;20033;-95
2021/12/26 23:20:03;;;;;;;16.83;7.15;;;;;;;;;;6281906;22;20008;-95
2021/12/26 23:22:43;;;;;;;17.52;7.80;;;;;;;;;;6282879;22;20012;-94
2021/12/26 23:25:24;;;;;;;17.48;6.40;;;;;;;;;;6283151;22;20008;-94
2021/12/26 23:27:53;;;;;;;13.70;6.22;;;;;;;;;;6281333;22;20011;-95
2021/12/26 23:30:34;;;;;;;15.57;7.68;;;;;;;;;;6282357;22;20012;-95
2021/12/26 23:33:15;;;;;;;16.92;6.95;;;;;;;;;;6281462;22;20015;-95
2021/12/26 23:35:56;;;;;;;11.73;6.40;;;;;;;;;;6282782;22;20004;-93
2021/12/26 23:38:36;;;;;;;13.93;6.70;;;;;;;;;;6282649;22;20024;-94
2021/12/26 23:41:21;;;;;;;12.90;6.82;;;;;;;;;;6282988;22;20004;-95
2021/12/26 23:44:01;;;;;;;14.60;6.10;;;;;;;;;;6282795;22;20007;-94
2021/12/26 23:46:42;;;;;;;18.02;7.25;;;;;;;;;;6282961;22;20034;-95
2021/12/26 23:49:22;;;;;;;15.82;6.85;;;;;;;;;;6283100;22;20007;-94
2021/12/26 23:52:03;;;;;;;13.40;7.20;;;;;;;;;;6282865;22;20058;-94
2021/12/26 23:54:45;;;;;;;17.63;6.22;;;;;;;;;;6274451;22;20008;-95
2021/12/26 23:57:25;;;;;;;12.15;6.70;;;;;;;;;;6283717;22;20012;-93
